Ana Sayfa
METAR-TAF:

METAR-TAF

Havaalanları :

Person County Airport

Roxboro, Kuzey Carolina, Amerika Birleşik Devletleri

Enlem: 36-17-06N, Boylam: 078-59-03W, yükseklik: 186 m

Güncel hava durumu gözlemi

Rapor saat 10:55 UTC de 18 dakika önce yapıldı.
Rüzgar güneybatıdan 4 kt
Sıcaklık 23°C
Nem 94%
Basınç 1016 hPa
Görüş mesafesi: 16.1 km
Açık gökyüzü

METAR: KTDF 211055Z AUTO 23004KT 10SM CLR 23/22 A3000 RMK AO2

Saat: 07:13 (11:13 UTC)


TAF: eksik

4.000'den fazla havaalanı için hava durumu gözlemleri ve tahminleri (METAR ve TAF raporları).

Kullanılabilir istasyonlar harita üzerinde sarı ve kırmızı noktalarla gösterilir.

İstasyonun adını görmek için fareyi noktanın üzerinde gezdirin.

Sonrasında hava gözlem ve tahminlerini görmek için tıklayın.

Haritayı değiştirmek için: yaklaştırmak için siyah artı işaretli yeşil düğmeye ve uzaklaştırmak için de eksi işaretli düğmeye hızla tıklayın; bitişik haritalar için yeşil okları kullanın.


METAR-TAF: